createdAt,value
2017-08-16T00:00:58.502Z,89.50
2017-08-16T00:03:26.833Z,90.20
2017-08-16T00:05:55.149Z,90.00
2017-08-16T00:08:23.485Z,90.00
2017-08-16T00:10:51.797Z,89.60
2017-08-16T00:13:20.137Z,89.90
2017-08-16T00:15:49.223Z,90.20
2017-08-16T00:18:17.566Z,90.20
2017-08-16T00:20:45.886Z,90.50
2017-08-16T00:23:15.001Z,90.50
2017-08-16T00:25:43.348Z,90.40
2017-08-16T00:28:11.690Z,90.50
2017-08-16T00:30:40.008Z,90.60
2017-08-16T00:33:09.094Z,90.50
2017-08-16T00:35:37.452Z,90.30
2017-08-16T00:38:05.753Z,90.20
2017-08-16T00:40:34.094Z,90.30
2017-08-16T00:43:02.408Z,90.30
2017-08-16T00:45:30.750Z,90.10
2017-08-16T00:47:59.060Z,90.10
2017-08-16T00:50:27.406Z,90.50
2017-08-16T00:52:55.720Z,90.60
2017-08-16T00:55:24.061Z,90.70
2017-08-16T00:57:52.369Z,90.80
2017-08-16T01:00:20.739Z,90.90
2017-08-16T01:02:49.081Z,91.00
2017-08-16T01:05:17.433Z,91.00
2017-08-16T01:07:46.550Z,90.80
2017-08-16T01:10:14.867Z,90.80
2017-08-16T01:12:43.220Z,91.10
2017-08-16T01:15:11.552Z,91.00
2017-08-16T01:17:39.893Z,90.80
2017-08-16T01:20:08.212Z,91.20
2017-08-16T01:22:36.542Z,91.10
2017-08-16T01:25:04.867Z,91.00
2017-08-16T01:27:33.202Z,91.00
2017-08-16T01:30:01.541Z,90.80
2017-08-16T01:32:29.892Z,91.10
2017-08-16T01:34:58.214Z,90.90
2017-08-16T01:37:26.553Z,90.80
2017-08-16T01:39:54.914Z,90.60
2017-08-16T01:42:23.238Z,90.60
2017-08-16T01:44:52.342Z,90.20
2017-08-16T01:47:20.657Z,90.20
2017-08-16T01:49:49.025Z,90.30
2017-08-16T01:52:17.339Z,90.10
2017-08-16T01:54:45.677Z,90.10
2017-08-16T01:57:14.013Z,90.10
2017-08-16T01:59:42.347Z,90.10
2017-08-16T02:02:10.665Z,90.40
2017-08-16T02:04:39.018Z,90.20
2017-08-16T02:07:07.398Z,90.30
2017-08-16T02:09:35.737Z,90.20
2017-08-16T02:12:04.072Z,89.80
2017-08-16T02:14:32.386Z,89.50
2017-08-16T02:17:00.764Z,89.20
2017-08-16T02:19:29.087Z,89.70
2017-08-16T02:21:57.478Z,88.90
2017-08-16T02:24:25.803Z,89.70
2017-08-16T02:26:54.143Z,89.00
2017-08-16T02:29:22.454Z,89.90
2017-08-16T02:31:56.756Z,88.80
2017-08-16T02:34:25.829Z,90.20
2017-08-16T02:36:54.159Z,90.20
2017-08-16T02:39:22.486Z,90.20
2017-08-16T02:41:50.879Z,90.10
2017-08-16T02:44:19.992Z,90.20
2017-08-16T02:46:49.081Z,90.00
2017-08-16T02:49:18.184Z,89.00
2017-08-16T02:51:47.275Z,89.20
2017-08-16T02:54:15.629Z,89.20
2017-08-16T02:56:43.970Z,89.60
2017-08-16T02:59:12.809Z,90.00
2017-08-16T03:01:41.169Z,89.30
2017-08-16T03:04:09.540Z,89.50
2017-08-16T03:06:37.902Z,89.80
2017-08-16T03:09:06.262Z,89.60
2017-08-16T03:11:34.606Z,89.70
2017-08-16T03:14:02.971Z,90.00
2017-08-16T03:16:31.319Z,90.00
2017-08-16T03:18:59.683Z,89.90
2017-08-16T03:21:28.009Z,90.20
2017-08-16T03:23:56.346Z,90.40
2017-08-16T03:26:24.715Z,90.20
2017-08-16T03:28:53.065Z,90.10
2017-08-16T03:31:21.426Z,89.80
2017-08-16T03:33:49.750Z,89.90
2017-08-16T03:36:18.118Z,90.20
2017-08-16T03:38:46.454Z,90.10
2017-08-16T03:41:14.809Z,90.10
2017-08-16T03:43:44.170Z,90.00
2017-08-16T03:46:12.526Z,90.20
2017-08-16T03:48:40.856Z,90.20
2017-08-16T03:51:09.210Z,90.30
2017-08-16T03:53:37.557Z,90.10
2017-08-16T03:56:05.926Z,90.30
2017-08-16T03:58:34.255Z,90.20
2017-08-16T04:01:04.595Z,90.20
2017-08-16T04:03:32.927Z,90.20
2017-08-16T04:06:01.297Z,89.60
2017-08-16T04:08:29.617Z,89.30
2017-08-16T04:10:57.959Z,89.30
2017-08-16T04:13:26.318Z,89.80
2017-08-16T04:15:54.656Z,89.50
2017-08-16T04:18:22.999Z,89.60
2017-08-16T04:20:51.337Z,90.20
2017-08-16T04:23:19.698Z,89.60
2017-08-16T04:25:48.047Z,89.10
2017-08-16T04:28:16.405Z,89.70
2017-08-16T04:30:44.730Z,90.20
2017-08-16T04:33:15.058Z,90.00
2017-08-16T04:35:43.392Z,90.20
2017-08-16T04:38:12.781Z,90.30
2017-08-16T04:40:41.150Z,90.40
2017-08-16T04:43:09.492Z,90.30
2017-08-16T04:45:37.866Z,90.20
2017-08-16T04:48:06.225Z,90.30
2017-08-16T04:50:34.555Z,89.90
2017-08-16T04:53:02.897Z,90.30
2017-08-16T04:55:34.727Z,90.10
2017-08-16T04:58:03.059Z,90.00
2017-08-16T05:00:31.417Z,90.00
2017-08-16T05:02:59.775Z,90.10
2017-08-16T05:05:28.899Z,90.40
2017-08-16T05:07:57.233Z,90.20
2017-08-16T05:10:25.586Z,90.10
2017-08-16T05:12:55.822Z,90.10
2017-08-16T05:15:24.185Z,90.00
2017-08-16T05:17:52.535Z,90.00
2017-08-16T05:20:20.898Z,89.80
2017-08-16T05:22:50.003Z,90.10
2017-08-16T05:25:19.122Z,90.20
2017-08-16T05:27:47.450Z,90.20
2017-08-16T05:30:15.787Z,90.10
2017-08-16T05:32:44.134Z,89.40
2017-08-16T05:35:13.238Z,90.40
2017-08-16T05:37:41.600Z,90.30
2017-08-16T05:40:10.704Z,90.40
2017-08-16T05:42:39.049Z,90.40
2017-08-16T05:45:07.366Z,90.60
2017-08-16T05:47:36.502Z,90.30
2017-08-16T05:50:04.832Z,90.30
2017-08-16T05:52:33.190Z,90.50
2017-08-16T05:55:01.514Z,90.30
2017-08-16T05:57:30.649Z,90.60
2017-08-16T05:59:58.974Z,90.60
2017-08-16T06:02:27.330Z,91.00
2017-08-16T06:04:55.644Z,91.10
2017-08-16T06:07:24.729Z,90.90
2017-08-16T06:09:53.075Z,90.90
2017-08-16T06:12:21.381Z,90.90
2017-08-16T06:14:49.721Z,91.10
2017-08-16T06:17:18.046Z,91.10
2017-08-16T06:19:47.155Z,90.90
2017-08-16T06:22:16.226Z,90.50
2017-08-16T06:24:44.567Z,90.50
2017-08-16T06:27:12.880Z,90.50
2017-08-16T06:29:41.223Z,90.50
2017-08-16T06:32:09.537Z,90.00
2017-08-16T06:34:37.882Z,90.10
2017-08-16T06:37:06.194Z,90.50
2017-08-16T06:39:34.509Z,90.30
2017-08-16T06:42:02.840Z,90.10
2017-08-16T06:44:31.148Z,89.50
2017-08-16T06:47:00.250Z,89.10
2017-08-16T06:49:29.327Z,88.80
2017-08-16T06:51:57.655Z,88.80
2017-08-16T06:54:25.963Z,89.00
2017-08-16T06:56:54.298Z,89.50
2017-08-16T06:59:22.601Z,89.50
2017-08-16T07:01:50.947Z,89.70
2017-08-16T07:04:19.262Z,89.10
2017-08-16T07:06:47.589Z,87.80
2017-08-16T07:09:16.664Z,87.00
2017-08-16T07:11:45.002Z,86.70
2017-08-16T07:14:13.307Z,87.10
2017-08-16T07:16:41.618Z,84.70
2017-08-16T07:19:09.961Z,83.50
2017-08-16T07:21:38.338Z,85.00
2017-08-16T07:24:06.671Z,83.40
2017-08-16T07:26:35.742Z,84.50
2017-08-16T07:29:04.072Z,84.40
2017-08-16T07:31:32.384Z,83.80
2017-08-16T07:34:00.712Z,83.00
2017-08-16T07:36:29.032Z,83.70
2017-08-16T07:38:57.384Z,82.50
2017-08-16T07:41:25.710Z,81.20
2017-08-16T07:43:54.044Z,80.40
2017-08-16T07:46:22.360Z,81.00
2017-08-16T07:48:50.703Z,80.20
2017-08-16T07:51:19.017Z,80.90
2017-08-16T07:53:47.362Z,79.80
2017-08-16T07:56:15.680Z,79.70
2017-08-16T07:58:43.994Z,81.70
2017-08-16T08:01:12.322Z,78.30
2017-08-16T08:03:40.634Z,79.10
2017-08-16T08:06:09.725Z,79.50
2017-08-16T08:08:38.050Z,79.60
2017-08-16T08:11:06.387Z,80.40
2017-08-16T08:13:35.463Z,81.20
2017-08-16T08:16:03.786Z,80.60
2017-08-16T08:18:32.110Z,80.20
2017-08-16T08:21:00.456Z,78.60
2017-08-16T08:23:28.771Z,78.50
2017-08-16T08:25:57.090Z,79.40
2017-08-16T08:28:25.396Z,77.90
2017-08-16T08:30:53.735Z,78.10
2017-08-16T08:33:22.821Z,78.60
2017-08-16T08:35:51.892Z,77.80
2017-08-16T08:38:20.235Z,77.80
2017-08-16T08:40:48.541Z,78.70
2017-08-16T08:43:16.898Z,78.20
2017-08-16T08:45:45.206Z,78.10
2017-08-16T08:48:13.542Z,78.50
2017-08-16T08:50:41.877Z,77.80
2017-08-16T08:53:10.205Z,77.90
2017-08-16T08:55:38.527Z,78.00
2017-08-16T08:58:06.874Z,77.20
2017-08-16T09:00:35.194Z,75.10
2017-08-16T09:03:04.307Z,77.10
2017-08-16T09:05:33.377Z,77.00
2017-08-16T09:08:01.672Z,77.00
2017-08-16T09:10:30.010Z,76.10
2017-08-16T09:12:58.321Z,75.20
2017-08-16T09:15:26.644Z,72.90
2017-08-16T09:17:54.983Z,72.60
2017-08-16T09:20:24.081Z,72.50
2017-08-16T09:22:52.399Z,72.60
2017-08-16T09:25:20.742Z,70.00
2017-08-16T09:27:49.054Z,71.60
2017-08-16T09:30:17.395Z,70.80
2017-08-16T09:32:46.460Z,69.50
2017-08-16T09:35:14.789Z,69.50
2017-08-16T09:37:43.098Z,66.50
2017-08-16T09:40:11.430Z,69.00
2017-08-16T09:42:40.502Z,71.60
2017-08-16T09:45:08.823Z,70.80
2017-08-16T09:47:37.152Z,66.70
2017-08-16T09:50:05.466Z,65.90
2017-08-16T09:52:34.555Z,66.60
2017-08-16T09:55:02.892Z,66.70
2017-08-16T09:57:31.323Z,65.60
2017-08-16T10:00:00.395Z,67.90
2017-08-16T10:02:28.729Z,67.90
2017-08-16T10:04:57.223Z,66.60
2017-08-16T10:07:25.560Z,65.20
2017-08-16T10:09:54.633Z,65.30
2017-08-16T10:12:22.982Z,65.20
2017-08-16T10:14:51.304Z,63.40
2017-08-16T10:17:20.382Z,65.10
2017-08-16T10:19:48.713Z,64.90
2017-08-16T10:22:17.030Z,62.00
2017-08-16T10:24:45.352Z,64.50
2017-08-16T10:27:13.661Z,61.80
2017-08-16T10:29:41.985Z,62.70
2017-08-16T10:32:10.295Z,59.60
2017-08-16T10:34:38.631Z,60.40
2017-08-16T10:37:06.950Z,60.90
2017-08-16T10:39:35.286Z,60.60
2017-08-16T10:42:03.594Z,59.80
2017-08-16T10:44:32.696Z,60.40
2017-08-16T10:47:00.996Z,60.30
2017-08-16T10:49:29.321Z,57.00
2017-08-16T10:51:57.648Z,61.30
2017-08-16T10:54:26.038Z,60.10
2017-08-16T10:56:54.370Z,59.00
2017-08-16T10:59:22.779Z,57.10
2017-08-16T11:01:51.188Z,57.80
2017-08-16T11:04:19.506Z,56.10
2017-08-16T11:06:47.926Z,57.90
2017-08-16T11:09:16.233Z,58.50
2017-08-16T11:11:44.563Z,54.80
2017-08-16T11:14:12.866Z,56.10
2017-08-16T11:37:50.065Z,56.30
2017-08-16T11:40:18.387Z,54.80
2017-08-16T11:42:46.689Z,56.10
2017-08-16T11:45:15.018Z,54.90
2017-08-16T11:47:43.325Z,56.30
2017-08-16T11:50:11.648Z,54.70
2017-08-16T11:52:39.958Z,55.60
2017-08-16T11:55:08.284Z,54.30
2017-08-16T11:57:36.585Z,55.20
2017-08-16T12:00:04.904Z,55.80
2017-08-16T12:02:33.202Z,54.90
2017-08-16T12:05:01.529Z,55.00
2017-08-16T12:07:29.824Z,55.90
2017-08-16T12:09:58.125Z,54.90
2017-08-16T12:12:26.458Z,55.30
2017-08-16T12:14:54.749Z,56.30
2017-08-16T12:17:23.069Z,56.90
2017-08-16T12:19:51.377Z,55.80
2017-08-16T12:22:19.689Z,52.40
2017-08-16T12:24:47.986Z,54.20
2017-08-16T12:27:16.300Z,53.60
2017-08-16T12:29:44.588Z,52.60
2017-08-16T12:32:12.904Z,55.20
2017-08-16T12:34:41.209Z,54.40
2017-08-16T12:37:23.489Z,53.80
2017-08-16T12:39:51.785Z,53.90
2017-08-16T12:42:20.108Z,53.20
2017-08-16T12:44:48.406Z,54.80
2017-08-16T12:47:16.733Z,55.00
2017-08-16T12:49:45.029Z,54.50
2017-08-16T12:52:13.333Z,56.90
2017-08-16T12:54:41.657Z,52.90
2017-08-16T12:57:09.949Z,52.30
2017-08-16T12:59:38.266Z,54.30
2017-08-16T13:02:06.568Z,53.30
2017-08-16T13:04:34.895Z,51.60
2017-08-16T13:09:57.620Z,52.80
2017-08-16T13:12:25.921Z,50.50
2017-08-16T13:14:55.008Z,51.30
2017-08-16T13:17:23.300Z,51.90
2017-08-16T13:19:51.617Z,53.80
2017-08-16T13:22:19.916Z,52.00
2017-08-16T13:24:48.241Z,51.40
2017-08-16T13:27:17.304Z,54.20
2017-08-16T13:29:45.596Z,54.20
2017-08-16T13:32:13.938Z,51.40
2017-08-16T13:34:42.239Z,53.80
2017-08-16T13:40:11.113Z,53.80
2017-08-16T13:42:39.409Z,53.70
2017-08-16T13:45:07.729Z,52.60
2017-08-16T13:47:36.064Z,53.10
2017-08-16T13:50:04.355Z,53.90
2017-08-16T13:52:32.677Z,52.30
2017-08-16T13:55:01.728Z,54.40
2017-08-16T13:57:30.054Z,54.40
2017-08-16T13:59:58.348Z,53.80
2017-08-16T14:02:26.669Z,51.60
2017-08-16T14:04:56.385Z,52.30
2017-08-16T14:07:24.704Z,55.30
2017-08-16T14:09:53.066Z,53.70
2017-08-16T14:12:22.156Z,54.30
2017-08-16T14:14:51.216Z,54.00
2017-08-16T14:17:19.532Z,54.00
2017-08-16T14:19:48.596Z,55.40
2017-08-16T14:22:16.941Z,55.40
2017-08-16T14:24:45.236Z,54.80
2017-08-16T14:27:13.542Z,53.90
2017-08-16T14:29:41.872Z,55.40
2017-08-16T14:32:10.164Z,54.20
2017-08-16T14:34:38.490Z,54.20
2017-08-16T14:37:06.795Z,54.50
2017-08-16T14:39:35.113Z,53.90
2017-08-16T14:42:03.414Z,51.70
2017-08-16T14:44:31.737Z,52.20
2017-08-16T14:47:00.028Z,52.40
2017-08-16T14:49:28.356Z,54.10
2017-08-16T14:51:57.413Z,54.00
2017-08-16T14:54:25.749Z,53.80
2017-08-16T14:56:54.048Z,52.70
2017-08-16T14:59:22.341Z,51.00
2017-08-16T15:01:50.662Z,51.90
2017-08-16T15:04:18.952Z,52.10
2017-08-16T15:06:47.281Z,52.70
2017-08-16T15:09:15.585Z,53.50
2017-08-16T15:11:43.896Z,54.10
2017-08-16T15:14:12.194Z,54.40
2017-08-16T15:16:40.518Z,54.20
2017-08-16T15:19:08.823Z,57.10
2017-08-16T15:21:37.146Z,59.20
2017-08-16T15:24:05.450Z,59.30
2017-08-16T15:26:33.796Z,59.60
2017-08-16T15:29:02.097Z,59.70
2017-08-16T15:31:33.952Z,61.00
2017-08-16T15:34:02.243Z,59.40
2017-08-16T15:36:30.541Z,60.70
2017-08-16T15:38:59.629Z,60.20
2017-08-16T15:41:27.925Z,60.30
2017-08-16T15:43:56.244Z,59.90
2017-08-16T15:46:24.541Z,61.50
2017-08-16T15:48:52.863Z,61.60
2017-08-16T15:51:21.155Z,58.80
2017-08-16T15:54:10.121Z,61.40
2017-08-16T15:56:38.416Z,61.30
2017-08-16T15:59:06.740Z,63.60
2017-08-16T16:01:35.044Z,59.80
2017-08-16T16:04:03.370Z,61.60
2017-08-16T16:06:31.673Z,57.50
2017-08-16T16:09:00.025Z,58.20
2017-08-16T16:11:28.328Z,60.50
2017-08-16T16:13:57.401Z,62.50
2017-08-16T16:16:25.733Z,62.50
2017-08-16T16:18:54.037Z,62.90
2017-08-16T16:21:22.355Z,61.10
2017-08-16T16:23:50.649Z,62.40
2017-08-16T16:26:19.003Z,62.80
2017-08-16T16:28:47.306Z,64.00
2017-08-16T16:31:15.624Z,65.10
2017-08-16T16:33:43.926Z,63.00
2017-08-16T16:36:12.240Z,63.80
2017-08-16T16:38:40.540Z,63.20
2017-08-16T16:41:08.987Z,63.70
2017-08-16T16:43:37.349Z,66.70
2017-08-16T16:46:05.670Z,62.80
2017-08-16T16:48:33.983Z,64.20
2017-08-16T16:51:02.284Z,64.70
2017-08-16T16:53:30.600Z,63.30
2017-08-16T16:55:58.896Z,62.50
2017-08-16T16:58:27.224Z,61.10
2017-08-16T17:00:56.294Z,62.20
2017-08-16T17:03:24.619Z,61.40
2017-08-16T17:05:52.920Z,62.10
2017-08-16T17:08:21.242Z,62.90
2017-08-16T17:10:49.539Z,61.10
2017-08-16T17:13:18.637Z,63.70
2017-08-16T17:15:47.705Z,65.00
2017-08-16T17:18:16.033Z,64.90
2017-08-16T17:20:44.341Z,65.80
2017-08-16T17:23:12.657Z,65.50
2017-08-16T17:28:41.401Z,66.00
2017-08-16T17:31:09.725Z,67.10
2017-08-16T17:33:38.030Z,66.90
2017-08-16T17:36:07.122Z,67.50
2017-08-16T17:38:36.188Z,67.40
2017-08-16T17:41:04.499Z,67.40
2017-08-16T17:43:33.568Z,68.40
2017-08-16T17:46:01.914Z,68.40
2017-08-16T17:48:30.214Z,68.40
2017-08-16T17:50:58.539Z,70.00
2017-08-16T17:53:34.014Z,70.70
2017-08-16T17:56:02.346Z,70.40
2017-08-16T17:58:31.422Z,73.00
2017-08-16T18:00:59.717Z,72.20
2017-08-16T18:06:28.538Z,72.30
2017-08-16T18:08:57.592Z,72.10
2017-08-16T18:11:25.912Z,72.10
2017-08-16T18:13:54.212Z,73.70
2017-08-16T18:16:22.540Z,74.10
2017-08-16T18:18:50.833Z,74.60
2017-08-16T18:21:19.897Z,74.60
2017-08-16T18:23:48.213Z,74.50
2017-08-16T18:26:17.272Z,75.10
2017-08-16T18:28:45.592Z,75.00
2017-08-16T18:31:17.749Z,75.30
2017-08-16T18:33:46.081Z,75.20
2017-08-16T18:36:14.385Z,75.40
2017-08-16T18:38:42.717Z,75.20
2017-08-16T18:41:11.014Z,75.50
2017-08-16T18:43:39.334Z,75.60
2017-08-16T18:46:07.625Z,75.20
2017-08-16T18:48:35.948Z,75.20
2017-08-16T18:51:04.255Z,75.20
2017-08-16T18:53:32.573Z,75.70
2017-08-16T18:56:00.872Z,76.00
2017-08-16T18:58:29.212Z,76.00
2017-08-16T19:00:57.513Z,76.20
2017-08-16T19:03:25.812Z,76.90
2017-08-16T19:05:54.140Z,76.90
2017-08-16T19:08:23.208Z,77.60
2017-08-16T19:10:51.533Z,76.80
2017-08-16T19:13:19.828Z,81.90
2017-08-16T19:15:48.152Z,81.70
2017-08-16T19:18:16.447Z,80.20
2017-08-16T19:20:45.536Z,79.50
2017-08-16T19:23:13.837Z,79.50
2017-08-16T19:25:42.957Z,78.90
2017-08-16T19:28:11.252Z,78.90
2017-08-16T19:30:39.573Z,79.00
2017-08-16T19:33:07.878Z,78.50
2017-08-16T19:35:36.203Z,80.50
2017-08-16T19:38:04.513Z,81.00
2017-08-16T19:40:37.162Z,80.10
2017-08-16T19:43:06.253Z,79.50
2017-08-16T19:45:34.589Z,79.50
2017-08-16T19:48:02.887Z,79.50
2017-08-16T19:50:31.206Z,79.50
2017-08-16T19:52:59.516Z,79.80
2017-08-16T19:55:27.824Z,79.50
2017-08-16T19:57:56.169Z,79.40
2017-08-16T20:00:24.465Z,79.20
2017-08-16T20:02:52.809Z,79.10
2017-08-16T20:05:21.110Z,79.60
2017-08-16T20:07:49.432Z,80.00
2017-08-16T20:10:17.737Z,80.10
2017-08-16T20:12:46.836Z,79.70
2017-08-16T20:15:15.136Z,79.40
2017-08-16T20:17:43.469Z,79.10
2017-08-16T20:20:11.760Z,78.50
2017-08-16T20:22:40.060Z,78.40
2017-08-16T20:25:09.145Z,79.50
2017-08-16T20:27:37.445Z,79.50
2017-08-16T20:30:05.770Z,79.30
2017-08-16T20:32:34.064Z,79.30
2017-08-16T20:35:02.381Z,80.20
2017-08-16T20:37:30.675Z,79.70
2017-08-16T20:39:59.004Z,80.10
2017-08-16T20:42:27.315Z,80.70
2017-08-16T20:44:55.641Z,80.70
2017-08-16T20:47:23.942Z,81.10
2017-08-16T20:49:52.269Z,81.40
2017-08-16T20:52:20.566Z,81.50
2017-08-16T20:54:48.885Z,81.50
2017-08-16T20:57:17.949Z,81.60
2017-08-16T20:59:46.241Z,81.60
2017-08-16T21:02:14.568Z,81.70
2017-08-16T21:04:42.874Z,82.10
2017-08-16T21:07:11.198Z,81.20
2017-08-16T21:09:39.492Z,81.70
2017-08-16T21:12:07.819Z,82.40
2017-08-16T21:14:36.118Z,82.90
2017-08-16T21:17:05.229Z,82.80
2017-08-16T21:19:33.538Z,82.80
2017-08-16T21:22:01.860Z,82.40
2017-08-16T21:24:30.168Z,82.70
2017-08-16T21:26:58.481Z,82.80
2017-08-16T21:29:26.797Z,83.40
2017-08-16T21:31:55.113Z,83.20
2017-08-16T21:34:23.418Z,83.40
2017-08-16T21:36:51.742Z,82.60
2017-08-16T21:39:20.806Z,82.20
2017-08-16T21:41:49.135Z,82.10
2017-08-16T21:44:17.428Z,82.40
2017-08-16T21:46:45.726Z,82.70
2017-08-16T21:49:14.056Z,82.50
2017-08-16T21:51:43.112Z,81.80
2017-08-16T21:54:11.443Z,81.70
2017-08-16T21:56:39.737Z,82.60
2017-08-16T21:59:08.061Z,82.00
2017-08-16T22:01:36.365Z,82.60
2017-08-16T22:04:04.709Z,83.10
2017-08-16T22:06:33.033Z,83.80
2017-08-16T22:09:21.276Z,83.00
2017-08-16T22:11:50.338Z,82.90
2017-08-16T22:14:18.667Z,82.90
2017-08-16T22:16:57.228Z,82.70
2017-08-16T22:19:25.550Z,82.50
2017-08-16T22:21:54.607Z,83.20
2017-08-16T22:24:23.643Z,83.20
2017-08-16T22:26:51.964Z,83.20
2017-08-16T22:29:20.264Z,83.50
2017-08-16T22:31:48.588Z,83.30
2017-08-16T22:34:16.896Z,83.20
2017-08-16T22:36:57.758Z,83.50
2017-08-16T22:39:26.057Z,83.00
2017-08-16T22:41:54.381Z,82.70
2017-08-16T22:44:22.682Z,83.20
2017-08-16T22:46:51.004Z,82.70
2017-08-16T22:49:19.318Z,82.30
2017-08-16T22:51:47.632Z,83.30
2017-08-16T22:54:15.937Z,83.80
2017-08-16T22:56:44.265Z,84.20
2017-08-16T22:59:12.558Z,84.20
2017-08-16T23:01:40.856Z,84.20
2017-08-16T23:04:09.209Z,84.50
2017-08-16T23:06:38.297Z,84.20
2017-08-16T23:09:06.622Z,84.20
2017-08-16T23:11:34.960Z,84.20
2017-08-16T23:14:03.312Z,84.60
2017-08-16T23:16:31.637Z,83.30
2017-08-16T23:18:59.960Z,83.20
2017-08-16T23:21:29.041Z,85.30
2017-08-16T23:23:57.378Z,85.30
2017-08-16T23:26:25.672Z,85.30
2017-08-16T23:28:53.998Z,85.50
2017-08-16T23:31:23.064Z,88.60
2017-08-16T23:33:51.386Z,88.40
2017-08-16T23:36:19.690Z,87.90
2017-08-16T23:38:48.013Z,86.90
2017-08-16T23:41:16.346Z,86.70
2017-08-16T23:43:44.655Z,86.60
2017-08-16T23:46:12.968Z,86.90
2017-08-16T23:48:41.269Z,86.70
2017-08-16T23:51:09.604Z,86.00
2017-08-16T23:53:37.901Z,85.90
2017-08-16T23:56:06.225Z,86.00
2017-08-16T23:58:34.817Z,86.70
